createdAt,value
2018-03-29T00:00:03.593Z,3.218688
2018-03-29T00:00:15.784Z,9.656064
2018-03-29T00:00:27.922Z,9.656064
2018-03-29T00:00:40.085Z,9.656064
2018-03-29T00:00:52.245Z,9.656064
2018-03-29T00:01:04.420Z,4.828032
2018-03-29T00:01:16.567Z,6.437376
2018-03-29T00:01:28.703Z,8.04672
2018-03-29T00:01:40.879Z,8.04672
2018-03-29T00:01:53.047Z,8.04672
2018-03-29T00:02:05.202Z,3.218688
2018-03-29T00:02:17.382Z,3.218688
2018-03-29T00:02:29.547Z,4.828032
2018-03-29T00:02:41.698Z,4.828032
2018-03-29T00:02:53.880Z,12.874752
2018-03-29T00:03:06.013Z,8.04672
2018-03-29T00:03:18.193Z,8.04672
2018-03-29T00:03:30.376Z,12.874752
2018-03-29T00:03:42.804Z,12.874752
2018-03-29T00:03:54.932Z,12.874752
2018-03-29T00:04:07.084Z,8.04672
2018-03-29T00:04:19.233Z,8.04672
2018-03-29T00:04:31.390Z,8.04672
2018-03-29T00:04:43.586Z,8.04672
2018-03-29T00:04:55.741Z,9.656064
2018-03-29T00:05:07.927Z,4.828032
2018-03-29T00:05:20.058Z,4.828032
2018-03-29T00:05:32.239Z,8.04672
2018-03-29T00:05:44.385Z,8.04672
2018-03-29T00:05:56.597Z,8.04672
2018-03-29T00:06:08.801Z,6.437376
2018-03-29T00:06:20.954Z,6.437376
2018-03-29T00:06:33.114Z,6.437376
2018-03-29T00:06:45.298Z,8.04672
2018-03-29T00:06:57.454Z,8.04672
2018-03-29T00:07:09.616Z,6.437376
2018-03-29T00:07:21.801Z,6.437376
2018-03-29T00:07:33.960Z,8.04672
2018-03-29T00:07:46.122Z,8.04672
2018-03-29T00:07:58.279Z,8.04672
2018-03-29T00:08:10.426Z,1.609344
2018-03-29T00:08:22.563Z,6.437376
2018-03-29T00:08:34.723Z,6.437376
2018-03-29T00:08:46.925Z,8.04672
2018-03-29T00:08:59.157Z,8.04672
2018-03-29T00:09:11.347Z,6.437376
2018-03-29T00:09:23.494Z,9.656064
2018-03-29T00:09:35.669Z,9.656064
2018-03-29T00:09:47.841Z,9.656064
2018-03-29T00:10:00.021Z,11.265408
2018-03-29T00:10:12.200Z,11.265408
2018-03-29T00:10:24.415Z,11.265408
2018-03-29T00:10:36.568Z,11.265408
2018-03-29T00:10:48.727Z,11.265408
2018-03-29T00:11:00.893Z,11.265408
2018-03-29T00:11:13.084Z,3.218688
2018-03-29T00:11:25.231Z,6.437376
2018-03-29T00:11:37.461Z,6.437376
2018-03-29T00:11:49.622Z,6.437376
2018-03-29T00:12:01.798Z,6.437376
2018-03-29T00:12:13.962Z,3.218688
2018-03-29T00:12:26.103Z,3.218688
2018-03-29T00:12:38.247Z,3.218688
2018-03-29T00:12:50.411Z,3.218688
2018-03-29T00:13:02.660Z,3.218688
2018-03-29T00:13:14.895Z,3.218688
2018-03-29T00:13:27.051Z,4.828032
2018-03-29T00:13:39.233Z,4.828032
2018-03-29T00:13:51.374Z,6.437376
2018-03-29T00:14:03.525Z,3.218688
2018-03-29T00:14:15.674Z,3.218688
2018-03-29T00:14:27.842Z,3.218688
2018-03-29T00:14:40.004Z,3.218688
2018-03-29T00:14:52.155Z,4.828032
2018-03-29T00:15:04.305Z,6.437376
2018-03-29T00:15:16.499Z,9.656064
2018-03-29T00:15:28.655Z,9.656064
2018-03-29T00:15:40.806Z,9.656064
2018-03-29T00:15:52.946Z,9.656064
2018-03-29T00:16:05.099Z,6.437376
2018-03-29T00:16:17.254Z,8.04672
2018-03-29T00:16:29.416Z,8.04672
2018-03-29T00:16:41.557Z,9.656064
2018-03-29T00:16:53.714Z,9.656064
2018-03-29T00:17:05.876Z,11.265408
2018-03-29T00:17:18.038Z,11.265408
2018-03-29T00:17:30.187Z,11.265408
2018-03-29T00:17:42.545Z,11.265408
2018-03-29T00:17:55.096Z,11.265408
2018-03-29T00:18:07.256Z,6.437376
2018-03-29T00:18:19.433Z,8.04672
2018-03-29T00:18:31.597Z,8.04672
2018-03-29T00:18:43.754Z,8.04672
2018-03-29T00:18:55.915Z,8.04672
2018-03-29T00:19:08.145Z,9.656064
2018-03-29T00:19:20.296Z,11.265408
2018-03-29T00:19:32.463Z,11.265408
2018-03-29T00:19:44.599Z,11.265408
2018-03-29T00:19:56.761Z,11.265408
2018-03-29T00:20:08.975Z,6.437376
2018-03-29T00:20:21.136Z,6.437376
2018-03-29T00:20:33.313Z,8.04672
2018-03-29T00:20:45.461Z,8.04672
2018-03-29T00:20:57.621Z,8.04672
2018-03-29T00:21:09.852Z,8.04672
2018-03-29T00:21:22.014Z,11.265408
2018-03-29T00:21:34.152Z,11.265408
2018-03-29T00:21:46.300Z,11.265408
2018-03-29T00:21:58.533Z,11.265408
2018-03-29T00:22:10.703Z,9.656064
2018-03-29T00:22:22.863Z,9.656064
2018-03-29T00:22:35.028Z,9.656064
2018-03-29T00:22:47.231Z,9.656064
2018-03-29T00:22:59.433Z,9.656064
2018-03-29T00:23:11.582Z,3.218688
2018-03-29T00:23:23.742Z,3.218688
2018-03-29T00:23:35.888Z,6.437376
2018-03-29T00:23:48.031Z,6.437376
2018-03-29T00:24:00.214Z,6.437376
2018-03-29T00:24:12.401Z,8.04672
2018-03-29T00:24:24.587Z,8.04672
2018-03-29T00:24:36.745Z,8.04672
2018-03-29T00:24:48.939Z,8.04672
2018-03-29T00:25:01.098Z,8.04672
2018-03-29T00:25:13.227Z,3.218688
2018-03-29T00:25:25.835Z,9.656064
2018-03-29T00:25:38.010Z,11.265408
2018-03-29T00:25:50.149Z,11.265408
2018-03-29T00:26:02.280Z,11.265408
2018-03-29T00:26:14.435Z,9.656064
2018-03-29T00:26:26.582Z,9.656064
2018-03-29T00:26:38.873Z,9.656064
2018-03-29T00:26:51.032Z,9.656064
2018-03-29T00:27:03.177Z,9.656064
2018-03-29T00:27:15.318Z,6.437376
2018-03-29T00:27:27.548Z,6.437376
2018-03-29T00:27:39.702Z,6.437376
2018-03-29T00:27:51.878Z,6.437376
2018-03-29T00:28:04.049Z,1.609344
2018-03-29T00:28:16.268Z,3.218688
2018-03-29T00:28:28.432Z,3.218688
2018-03-29T00:28:40.589Z,3.218688
2018-03-29T00:28:52.769Z,3.218688
2018-03-29T00:29:04.939Z,8.04672
2018-03-29T00:29:17.127Z,8.04672
2018-03-29T00:29:29.287Z,8.04672
2018-03-29T00:29:41.453Z,8.04672
2018-03-29T00:29:53.623Z,8.04672
2018-03-29T00:30:05.777Z,1.609344
2018-03-29T00:30:17.947Z,3.218688
2018-03-29T00:30:30.146Z,3.218688
2018-03-29T00:30:42.325Z,3.218688
2018-03-29T00:30:54.475Z,3.218688
2018-03-29T00:31:06.722Z,1.609344
2018-03-29T00:31:18.886Z,3.218688
2018-03-29T00:31:31.027Z,8.04672
2018-03-29T00:31:43.289Z,8.04672
2018-03-29T00:31:55.474Z,8.04672
2018-03-29T00:32:07.674Z,6.437376
2018-03-29T00:32:19.820Z,8.04672
2018-03-29T00:32:31.961Z,8.04672
2018-03-29T00:32:44.150Z,8.04672
2018-03-29T00:32:56.313Z,8.04672
2018-03-29T00:33:08.482Z,8.04672
2018-03-29T00:33:20.633Z,8.04672
2018-03-29T00:33:32.780Z,8.04672
2018-03-29T00:33:44.920Z,8.04672
2018-03-29T00:33:57.078Z,8.04672
2018-03-29T00:34:09.362Z,6.437376
2018-03-29T00:34:21.506Z,6.437376
2018-03-29T00:34:33.654Z,6.437376
2018-03-29T00:34:45.783Z,6.437376
2018-03-29T00:34:57.949Z,6.437376
2018-03-29T00:35:10.179Z,3.218688
2018-03-29T00:35:22.324Z,3.218688
2018-03-29T00:35:34.474Z,6.437376
2018-03-29T00:35:46.621Z,6.437376
2018-03-29T00:35:58.775Z,6.437376
2018-03-29T00:36:10.937Z,6.437376
2018-03-29T00:36:23.103Z,6.437376
2018-03-29T00:36:35.248Z,8.04672
2018-03-29T00:36:47.417Z,8.04672
2018-03-29T00:36:59.548Z,8.04672
2018-03-29T00:37:11.703Z,4.828032
2018-03-29T00:37:23.871Z,6.437376
2018-03-29T00:37:36.046Z,6.437376
2018-03-29T00:37:48.193Z,6.437376
2018-03-29T00:38:00.361Z,6.437376
2018-03-29T00:38:12.502Z,3.218688
2018-03-29T00:38:24.672Z,3.218688
2018-03-29T00:38:36.842Z,8.04672
2018-03-29T00:38:48.979Z,8.04672
2018-03-29T00:39:01.154Z,8.04672
2018-03-29T00:39:13.365Z,11.265408
2018-03-29T00:39:25.543Z,12.874752
2018-03-29T00:39:37.686Z,12.874752
2018-03-29T00:39:49.834Z,17.702784
2018-03-29T00:40:02.000Z,17.702784
2018-03-29T00:40:14.155Z,14.484096
2018-03-29T00:40:26.296Z,14.484096
2018-03-29T00:40:38.472Z,14.484096
2018-03-29T00:40:50.637Z,14.484096
2018-03-29T00:41:02.779Z,14.484096
2018-03-29T00:41:14.913Z,12.874752
2018-03-29T00:41:27.091Z,12.874752
2018-03-29T00:41:39.252Z,12.874752
2018-03-29T00:41:51.396Z,12.874752
2018-03-29T00:42:03.555Z,1.609344
2018-03-29T00:42:15.692Z,1.609344
2018-03-29T00:42:27.867Z,3.218688
2018-03-29T00:42:40.060Z,3.218688
2018-03-29T00:42:52.208Z,8.04672
2018-03-29T00:43:04.352Z,8.04672
2018-03-29T00:43:16.506Z,8.04672
2018-03-29T00:43:28.637Z,8.04672
2018-03-29T00:43:40.799Z,8.04672
2018-03-29T00:43:52.952Z,8.04672
2018-03-29T00:44:05.276Z,9.656064
2018-03-29T00:44:17.437Z,9.656064
2018-03-29T00:44:29.602Z,9.656064
2018-03-29T00:44:41.752Z,9.656064
2018-03-29T00:44:53.898Z,9.656064
2018-03-29T00:45:06.060Z,6.437376
2018-03-29T00:45:18.193Z,6.437376
2018-03-29T00:45:30.359Z,8.04672
2018-03-29T00:45:42.486Z,9.656064
2018-03-29T00:45:54.622Z,9.656064
2018-03-29T00:46:06.788Z,1.609344
2018-03-29T00:46:18.925Z,1.609344
2018-03-29T00:46:31.067Z,3.218688
2018-03-29T00:46:43.216Z,8.04672
2018-03-29T00:46:55.345Z,9.656064
2018-03-29T00:47:07.593Z,8.04672
2018-03-29T00:47:19.926Z,8.04672
2018-03-29T00:47:32.087Z,8.04672
2018-03-29T00:47:44.242Z,8.04672
2018-03-29T00:47:56.546Z,11.265408
2018-03-29T00:48:08.729Z,6.437376
2018-03-29T00:48:20.896Z,6.437376
2018-03-29T00:48:33.045Z,6.437376
2018-03-29T00:48:45.220Z,6.437376
2018-03-29T00:48:57.552Z,6.437376
2018-03-29T00:49:09.690Z,6.437376
2018-03-29T00:49:21.872Z,6.437376
2018-03-29T00:49:34.461Z,6.437376
2018-03-29T00:49:46.607Z,6.437376
2018-03-29T00:49:58.751Z,11.265408
2018-03-29T00:50:10.898Z,11.265408
2018-03-29T00:50:23.046Z,11.265408
2018-03-29T00:50:35.178Z,11.265408
2018-03-29T00:50:47.308Z,11.265408
2018-03-29T00:50:59.530Z,11.265408
2018-03-29T00:51:11.690Z,9.656064
2018-03-29T00:51:24.007Z,9.656064
2018-03-29T00:51:36.183Z,9.656064
2018-03-29T00:51:48.320Z,9.656064
2018-03-29T00:52:00.459Z,9.656064
2018-03-29T00:52:12.614Z,6.437376
2018-03-29T00:52:24.775Z,6.437376
2018-03-29T00:52:36.932Z,6.437376
2018-03-29T00:52:49.173Z,6.437376
2018-03-29T00:53:01.358Z,6.437376
2018-03-29T00:53:13.670Z,3.218688
2018-03-29T00:53:25.816Z,3.218688
2018-03-29T00:53:37.962Z,3.218688
2018-03-29T00:53:50.104Z,3.218688
2018-03-29T00:54:02.282Z,3.218688
2018-03-29T00:54:14.416Z,3.218688
2018-03-29T00:54:26.649Z,3.218688
2018-03-29T00:54:38.861Z,6.437376
2018-03-29T00:54:51.010Z,11.265408
2018-03-29T00:55:03.309Z,9.656064
2018-03-29T00:55:15.461Z,9.656064
2018-03-29T00:55:27.627Z,9.656064
2018-03-29T00:55:39.793Z,9.656064
2018-03-29T00:55:51.930Z,9.656064
2018-03-29T00:56:04.094Z,1.609344
2018-03-29T00:56:16.271Z,3.218688
2018-03-29T00:56:28.427Z,3.218688
2018-03-29T00:56:40.604Z,4.828032
2018-03-29T00:56:52.754Z,12.874752
2018-03-29T00:57:04.954Z,11.265408
2018-03-29T00:57:17.201Z,11.265408
2018-03-29T00:57:29.345Z,11.265408
2018-03-29T00:57:41.475Z,11.265408
2018-03-29T00:57:53.655Z,11.265408
2018-03-29T00:58:05.802Z,6.437376
2018-03-29T00:58:17.957Z,8.04672
2018-03-29T00:58:30.103Z,8.04672
2018-03-29T00:58:42.295Z,8.04672
2018-03-29T00:58:54.446Z,8.04672
2018-03-29T00:59:06.592Z,6.437376
2018-03-29T00:59:18.749Z,6.437376
2018-03-29T00:59:30.887Z,9.656064
2018-03-29T00:59:43.036Z,9.656064
2018-03-29T00:59:55.156Z,9.656064
2018-03-29T01:00:07.367Z,3.218688
2018-03-29T01:00:19.763Z,6.437376
2018-03-29T01:00:31.883Z,8.04672
2018-03-29T01:00:44.015Z,8.04672
2018-03-29T01:00:56.177Z,8.04672
2018-03-29T01:01:08.388Z,8.04672
2018-03-29T01:01:20.535Z,12.874752
2018-03-29T01:01:32.758Z,12.874752
2018-03-29T01:01:44.926Z,12.874752
2018-03-29T01:01:57.141Z,12.874752
2018-03-29T01:02:09.324Z,6.437376
2018-03-29T01:02:21.502Z,8.04672
2018-03-29T01:02:33.660Z,8.04672
2018-03-29T01:02:45.826Z,8.04672
2018-03-29T01:02:57.982Z,8.04672
2018-03-29T01:03:10.133Z,6.437376
2018-03-29T01:03:22.347Z,6.437376
2018-03-29T01:03:34.485Z,6.437376
2018-03-29T01:03:46.941Z,6.437376
2018-03-29T01:03:59.153Z,6.437376
2018-03-29T01:04:11.346Z,3.218688
2018-03-29T01:04:23.506Z,8.04672
2018-03-29T01:04:35.695Z,8.04672
2018-03-29T01:04:47.855Z,9.656064
2018-03-29T01:05:00.009Z,9.656064
2018-03-29T01:05:12.189Z,9.656064
2018-03-29T01:05:24.342Z,9.656064
2018-03-29T01:05:36.484Z,11.265408
2018-03-29T01:05:48.622Z,12.874752
2018-03-29T01:06:00.774Z,12.874752
2018-03-29T01:06:12.923Z,11.265408
2018-03-29T01:06:25.084Z,11.265408
2018-03-29T01:06:37.249Z,11.265408
2018-03-29T01:06:49.458Z,11.265408
2018-03-29T01:07:01.622Z,11.265408
2018-03-29T01:07:13.763Z,11.265408
2018-03-29T01:07:25.986Z,11.265408
2018-03-29T01:07:38.124Z,11.265408
2018-03-29T01:07:50.381Z,11.265408
2018-03-29T01:08:02.547Z,11.265408
2018-03-29T01:08:14.703Z,8.04672
2018-03-29T01:08:26.851Z,8.04672
2018-03-29T01:08:38.992Z,8.04672
2018-03-29T01:08:51.147Z,8.04672
2018-03-29T01:09:03.309Z,8.04672
2018-03-29T01:09:15.487Z,8.04672
2018-03-29T01:09:27.703Z,11.265408
2018-03-29T01:09:39.974Z,11.265408
2018-03-29T01:09:52.137Z,11.265408
2018-03-29T01:10:04.282Z,3.218688
2018-03-29T01:10:16.410Z,6.437376
2018-03-29T01:10:28.563Z,11.265408
2018-03-29T01:10:40.723Z,11.265408
2018-03-29T01:10:52.876Z,11.265408
2018-03-29T01:11:05.033Z,8.04672
2018-03-29T01:11:17.211Z,9.656064
2018-03-29T01:11:29.378Z,9.656064
2018-03-29T01:11:41.531Z,11.265408
2018-03-29T01:11:53.667Z,11.265408
2018-03-29T01:12:05.913Z,16.09344
2018-03-29T01:12:18.128Z,16.09344
2018-03-29T01:12:30.274Z,16.09344
2018-03-29T01:12:42.425Z,16.09344
2018-03-29T01:12:54.828Z,16.09344
2018-03-29T01:13:07.003Z,8.04672
2018-03-29T01:13:19.147Z,12.874752
2018-03-29T01:13:31.320Z,14.484096
2018-03-29T01:13:43.464Z,14.484096
2018-03-29T01:13:55.618Z,14.484096
2018-03-29T01:14:07.761Z,11.265408
2018-03-29T01:14:19.915Z,11.265408
2018-03-29T01:14:32.079Z,11.265408
2018-03-29T01:14:44.245Z,11.265408
2018-03-29T01:14:56.402Z,11.265408
2018-03-29T01:15:08.533Z,9.656064
2018-03-29T01:15:20.684Z,9.656064
2018-03-29T01:15:32.809Z,9.656064
2018-03-29T01:15:44.945Z,9.656064
2018-03-29T01:15:57.107Z,9.656064
2018-03-29T01:16:09.273Z,11.265408
2018-03-29T01:16:21.426Z,14.484096
2018-03-29T01:16:33.574Z,14.484096
2018-03-29T01:16:45.761Z,14.484096
2018-03-29T01:16:57.902Z,14.484096
2018-03-29T01:17:10.129Z,3.218688
2018-03-29T01:17:22.268Z,3.218688
2018-03-29T01:17:34.434Z,4.828032
2018-03-29T01:17:46.578Z,4.828032
2018-03-29T01:17:59.076Z,4.828032
2018-03-29T01:18:11.284Z,3.218688
2018-03-29T01:18:23.473Z,3.218688
2018-03-29T01:18:35.627Z,4.828032
2018-03-29T01:18:47.777Z,4.828032
2018-03-29T01:18:59.950Z,4.828032
2018-03-29T01:19:12.107Z,3.218688
2018-03-29T01:19:24.242Z,3.218688
2018-03-29T01:19:36.427Z,3.218688
2018-03-29T01:19:48.589Z,3.218688
2018-03-29T01:20:00.781Z,4.828032
2018-03-29T01:20:12.976Z,3.218688
2018-03-29T01:20:25.152Z,8.04672
2018-03-29T01:20:37.531Z,8.04672
2018-03-29T01:20:49.673Z,8.04672
2018-03-29T01:21:01.857Z,8.04672
2018-03-29T01:21:14.008Z,8.04672
2018-03-29T01:21:26.170Z,8.04672
2018-03-29T01:21:38.339Z,8.04672
2018-03-29T01:21:50.509Z,8.04672
2018-03-29T01:22:02.652Z,8.04672
2018-03-29T01:22:14.811Z,8.04672
2018-03-29T01:22:26.973Z,8.04672
2018-03-29T01:22:39.111Z,8.04672
2018-03-29T01:22:51.265Z,8.04672
2018-03-29T01:23:03.472Z,1.609344
2018-03-29T01:23:15.631Z,6.437376
2018-03-29T01:23:27.773Z,6.437376
2018-03-29T01:23:39.944Z,6.437376
2018-03-29T01:23:52.118Z,6.437376
2018-03-29T01:24:04.308Z,6.437376
2018-03-29T01:24:16.469Z,8.04672
2018-03-29T01:24:28.643Z,8.04672
2018-03-29T01:24:40.816Z,8.04672
2018-03-29T01:24:53.000Z,8.04672
2018-03-29T01:25:05.210Z,6.437376
2018-03-29T01:25:17.353Z,8.04672
2018-03-29T01:25:29.512Z,8.04672
2018-03-29T01:25:41.670Z,8.04672
2018-03-29T01:25:53.936Z,8.04672
2018-03-29T01:26:06.071Z,4.828032
2018-03-29T01:26:18.224Z,8.04672
2018-03-29T01:26:30.432Z,8.04672
2018-03-29T01:26:42.762Z,8.04672
2018-03-29T01:26:54.951Z,8.04672
2018-03-29T01:27:07.105Z,6.437376
2018-03-29T01:27:19.292Z,8.04672
2018-03-29T01:27:31.436Z,8.04672
2018-03-29T01:27:43.590Z,8.04672
2018-03-29T01:27:55.740Z,8.04672
2018-03-29T01:28:07.912Z,6.437376
2018-03-29T01:28:20.062Z,6.437376
2018-03-29T01:28:32.206Z,6.437376
2018-03-29T01:28:44.334Z,6.437376
2018-03-29T01:28:56.472Z,6.437376
2018-03-29T01:29:08.640Z,9.656064
2018-03-29T01:29:20.796Z,9.656064
2018-03-29T01:29:32.937Z,11.265408
2018-03-29T01:29:45.096Z,11.265408
2018-03-29T01:29:57.238Z,11.265408
2018-03-29T01:30:09.388Z,8.04672
2018-03-29T01:30:21.537Z,8.04672
2018-03-29T01:30:33.688Z,8.04672
2018-03-29T01:30:45.873Z,9.656064
2018-03-29T01:30:58.042Z,9.656064
2018-03-29T01:31:10.207Z,3.218688
2018-03-29T01:31:22.367Z,3.218688
2018-03-29T01:31:34.616Z,4.828032
2018-03-29T01:31:46.764Z,8.04672
2018-03-29T01:31:58.943Z,11.265408
2018-03-29T01:32:11.236Z,8.04672
2018-03-29T01:32:23.420Z,9.656064
2018-03-29T01:32:35.588Z,9.656064
2018-03-29T01:32:47.739Z,9.656064
2018-03-29T01:32:59.912Z,11.265408
2018-03-29T01:33:12.091Z,12.874752
2018-03-29T01:33:24.257Z,14.484096
2018-03-29T01:33:36.388Z,14.484096
2018-03-29T01:33:48.539Z,14.484096
2018-03-29T01:34:00.702Z,14.484096
2018-03-29T01:34:12.866Z,9.656064
2018-03-29T01:34:25.010Z,9.656064
2018-03-29T01:34:37.157Z,9.656064
2018-03-29T01:34:49.290Z,9.656064
2018-03-29T01:35:01.437Z,9.656064
2018-03-29T01:35:13.612Z,11.265408
2018-03-29T01:35:25.788Z,14.484096
2018-03-29T01:35:37.946Z,14.484096
2018-03-29T01:35:50.106Z,14.484096
2018-03-29T01:36:02.276Z,14.484096
2018-03-29T01:36:14.426Z,9.656064
2018-03-29T01:36:26.609Z,11.265408
2018-03-29T01:36:38.805Z,14.484096
2018-03-29T01:36:50.961Z,14.484096
2018-03-29T01:37:03.167Z,14.484096
2018-03-29T01:37:15.335Z,11.265408
2018-03-29T01:37:27.474Z,11.265408
2018-03-29T01:37:39.626Z,11.265408
2018-03-29T01:37:51.777Z,12.874752
2018-03-29T01:38:03.927Z,9.656064
2018-03-29T01:38:16.084Z,14.484096
2018-03-29T01:38:28.257Z,14.484096
2018-03-29T01:38:40.449Z,14.484096
2018-03-29T01:38:52.603Z,14.484096
2018-03-29T01:39:04.813Z,8.04672
2018-03-29T01:39:16.972Z,9.656064
2018-03-29T01:39:29.247Z,12.874752
2018-03-29T01:39:41.385Z,14.484096
2018-03-29T01:39:53.529Z,14.484096
2018-03-29T01:40:05.696Z,11.265408
2018-03-29T01:40:17.820Z,11.265408
2018-03-29T01:40:29.998Z,11.265408
2018-03-29T01:40:42.148Z,11.265408
2018-03-29T01:40:54.353Z,11.265408
2018-03-29T01:41:06.510Z,3.218688
2018-03-29T01:41:18.716Z,8.04672
2018-03-29T01:41:30.861Z,8.04672
2018-03-29T01:41:43.012Z,8.04672
2018-03-29T01:41:55.178Z,11.265408
2018-03-29T01:42:07.404Z,12.874752
2018-03-29T01:42:19.592Z,12.874752
2018-03-29T01:42:31.737Z,12.874752
2018-03-29T01:42:43.875Z,12.874752
2018-03-29T01:42:56.025Z,12.874752
2018-03-29T01:43:08.189Z,9.656064
2018-03-29T01:43:20.334Z,9.656064
2018-03-29T01:43:32.527Z,9.656064
2018-03-29T01:43:44.662Z,9.656064
2018-03-29T01:43:56.811Z,9.656064
2018-03-29T01:44:08.953Z,6.437376
2018-03-29T01:44:21.084Z,6.437376
2018-03-29T01:44:33.249Z,9.656064
2018-03-29T01:44:45.425Z,9.656064
2018-03-29T01:44:57.596Z,9.656064
2018-03-29T01:45:09.786Z,8.04672
2018-03-29T01:45:21.927Z,11.265408
2018-03-29T01:45:34.095Z,11.265408
2018-03-29T01:45:46.240Z,11.265408
2018-03-29T01:45:58.390Z,11.265408
2018-03-29T01:46:10.562Z,6.437376
2018-03-29T01:46:22.702Z,8.04672
2018-03-29T01:46:34.872Z,8.04672
2018-03-29T01:46:47.038Z,8.04672
2018-03-29T01:46:59.192Z,8.04672
2018-03-29T01:47:11.383Z,6.437376
2018-03-29T01:47:23.547Z,6.437376
2018-03-29T01:47:35.678Z,8.04672
2018-03-29T01:47:47.831Z,9.656064
2018-03-29T01:48:00.160Z,9.656064
2018-03-29T01:48:12.294Z,8.04672
2018-03-29T01:48:24.448Z,8.04672
2018-03-29T01:48:36.593Z,8.04672
2018-03-29T01:48:48.728Z,8.04672
2018-03-29T01:49:01.015Z,8.04672
2018-03-29T01:49:13.179Z,4.828032
2018-03-29T01:49:25.326Z,4.828032
2018-03-29T01:49:37.476Z,4.828032
2018-03-29T01:49:49.613Z,6.437376
2018-03-29T01:50:01.846Z,8.04672
2018-03-29T01:50:14.014Z,4.828032
2018-03-29T01:50:26.178Z,4.828032
2018-03-29T01:50:38.398Z,6.437376
2018-03-29T01:50:50.557Z,6.437376
2018-03-29T01:51:02.698Z,8.04672
2018-03-29T01:51:14.913Z,8.04672
2018-03-29T01:51:27.060Z,8.04672
2018-03-29T01:51:39.295Z,8.04672
2018-03-29T01:51:51.429Z,9.656064
2018-03-29T01:52:03.652Z,8.04672
2018-03-29T01:52:15.800Z,8.04672
2018-03-29T01:52:27.951Z,8.04672
2018-03-29T01:52:40.105Z,8.04672
2018-03-29T01:52:52.253Z,9.656064
2018-03-29T01:53:04.538Z,4.828032
2018-03-29T01:53:16.736Z,8.04672
2018-03-29T01:53:28.905Z,9.656064
2018-03-29T01:53:41.060Z,9.656064
2018-03-29T01:53:53.223Z,9.656064
2018-03-29T01:54:05.377Z,6.437376
2018-03-29T01:54:17.531Z,9.656064
2018-03-29T01:54:29.657Z,14.484096
2018-03-29T01:54:41.814Z,14.484096
2018-03-29T01:54:54.187Z,14.484096
2018-03-29T01:55:06.495Z,9.656064
2018-03-29T01:55:18.645Z,9.656064
2018-03-29T01:55:30.789Z,9.656064
2018-03-29T01:55:43.003Z,9.656064
2018-03-29T01:55:55.161Z,9.656064
2018-03-29T01:56:07.300Z,9.656064
2018-03-29T01:56:19.460Z,11.265408
2018-03-29T01:56:31.616Z,11.265408
2018-03-29T01:56:43.756Z,11.265408
2018-03-29T01:56:55.904Z,11.265408
2018-03-29T01:57:08.080Z,9.656064
2018-03-29T01:57:20.236Z,9.656064
2018-03-29T01:57:32.442Z,9.656064
2018-03-29T01:57:44.610Z,9.656064
2018-03-29T01:57:56.774Z,9.656064
2018-03-29T01:58:08.925Z,8.04672
2018-03-29T01:58:21.111Z,11.265408
2018-03-29T01:58:33.266Z,14.484096
2018-03-29T01:58:45.419Z,14.484096
2018-03-29T01:58:57.565Z,14.484096
2018-03-29T01:59:09.717Z,14.484096
2018-03-29T01:59:21.899Z,14.484096
2018-03-29T01:59:34.067Z,14.484096
2018-03-29T01:59:46.226Z,14.484096
2018-03-29T01:59:58.419Z,14.484096
2018-03-29T02:00:10.597Z,8.04672
2018-03-29T02:00:22.809Z,9.656064
2018-03-29T02:00:34.960Z,9.656064
2018-03-29T02:00:47.115Z,12.874752
2018-03-29T02:00:59.506Z,12.874752
2018-03-29T02:01:11.733Z,9.656064
2018-03-29T02:01:23.903Z,9.656064
2018-03-29T02:01:36.082Z,12.874752
2018-03-29T02:01:48.239Z,12.874752
2018-03-29T02:02:00.382Z,12.874752
2018-03-29T02:02:12.543Z,11.265408
2018-03-29T02:02:24.708Z,11.265408
2018-03-29T02:02:36.889Z,11.265408
2018-03-29T02:02:49.027Z,11.265408
2018-03-29T02:03:01.181Z,11.265408
2018-03-29T02:03:13.338Z,8.04672
2018-03-29T02:03:25.485Z,8.04672
2018-03-29T02:03:37.640Z,8.04672
2018-03-29T02:03:49.992Z,8.04672
2018-03-29T02:04:02.171Z,8.04672
2018-03-29T02:04:14.318Z,9.656064
2018-03-29T02:04:26.521Z,9.656064
2018-03-29T02:04:38.739Z,9.656064
2018-03-29T02:04:50.904Z,9.656064
2018-03-29T02:05:03.068Z,11.265408
2018-03-29T02:05:15.213Z,9.656064
2018-03-29T02:05:27.357Z,11.265408
2018-03-29T02:05:39.556Z,11.265408
2018-03-29T02:05:51.730Z,11.265408
2018-03-29T02:06:03.923Z,8.04672
2018-03-29T02:06:16.075Z,11.265408
2018-03-29T02:06:28.236Z,11.265408
2018-03-29T02:06:40.381Z,11.265408
2018-03-29T02:06:52.543Z,11.265408
2018-03-29T02:07:04.726Z,8.04672
2018-03-29T02:07:16.939Z,8.04672
2018-03-29T02:07:29.095Z,8.04672
2018-03-29T02:07:41.312Z,8.04672
2018-03-29T02:07:53.742Z,9.656064
2018-03-29T02:08:05.943Z,9.656064
2018-03-29T02:08:18.093Z,9.656064
2018-03-29T02:08:30.229Z,9.656064
2018-03-29T02:08:42.371Z,9.656064
2018-03-29T02:08:54.581Z,9.656064
2018-03-29T02:09:06.730Z,6.437376
2018-03-29T02:09:18.892Z,11.265408
2018-03-29T02:09:31.101Z,11.265408
2018-03-29T02:09:43.275Z,11.265408
2018-03-29T02:09:55.433Z,11.265408
2018-03-29T02:10:07.607Z,8.04672
2018-03-29T02:10:19.796Z,8.04672
2018-03-29T02:10:31.952Z,8.04672
2018-03-29T02:10:44.115Z,8.04672
2018-03-29T02:10:56.265Z,8.04672
2018-03-29T02:11:08.422Z,6.437376
2018-03-29T02:11:20.572Z,6.437376
2018-03-29T02:11:32.746Z,8.04672
2018-03-29T02:11:44.925Z,8.04672
2018-03-29T02:11:57.084Z,8.04672
2018-03-29T02:12:09.240Z,8.04672
2018-03-29T02:12:21.387Z,8.04672
2018-03-29T02:12:33.541Z,9.656064
2018-03-29T02:12:45.685Z,9.656064
2018-03-29T02:12:58.033Z,11.265408
2018-03-29T02:13:10.184Z,9.656064
2018-03-29T02:13:22.334Z,9.656064
2018-03-29T02:13:34.469Z,9.656064
2018-03-29T02:13:46.633Z,11.265408
2018-03-29T02:13:58.806Z,11.265408
2018-03-29T02:14:10.960Z,11.265408
2018-03-29T02:14:23.115Z,11.265408
2018-03-29T02:14:35.280Z,11.265408
2018-03-29T02:14:47.449Z,11.265408
2018-03-29T02:14:59.589Z,11.265408
2018-03-29T02:15:11.757Z,9.656064
2018-03-29T02:15:23.927Z,12.874752
2018-03-29T02:15:36.068Z,12.874752
2018-03-29T02:15:48.205Z,12.874752
2018-03-29T02:16:00.336Z,12.874752
2018-03-29T02:16:12.495Z,12.874752
2018-03-29T02:16:24.666Z,12.874752
2018-03-29T02:16:36.811Z,12.874752
2018-03-29T02:16:49.000Z,12.874752
2018-03-29T02:17:01.160Z,12.874752
2018-03-29T02:17:13.364Z,6.437376
2018-03-29T02:17:25.525Z,9.656064
2018-03-29T02:17:37.702Z,9.656064
2018-03-29T02:17:49.937Z,9.656064
2018-03-29T02:18:02.461Z,9.656064
2018-03-29T02:18:14.620Z,11.265408
2018-03-29T02:18:26.847Z,11.265408
2018-03-29T02:18:39.017Z,11.265408
2018-03-29T02:18:51.148Z,11.265408
2018-03-29T02:19:03.303Z,11.265408
2018-03-29T02:19:15.448Z,6.437376
2018-03-29T02:19:27.589Z,6.437376
2018-03-29T02:19:39.737Z,8.04672
2018-03-29T02:19:51.915Z,8.04672
2018-03-29T02:20:04.054Z,4.828032
2018-03-29T02:20:16.212Z,6.437376
2018-03-29T02:20:28.394Z,6.437376
2018-03-29T02:20:40.525Z,8.04672
2018-03-29T02:20:52.708Z,8.04672
2018-03-29T02:21:04.863Z,3.218688
2018-03-29T02:21:17.039Z,8.04672
2018-03-29T02:21:29.173Z,9.656064
2018-03-29T02:21:41.314Z,9.656064
2018-03-29T02:21:53.469Z,9.656064
2018-03-29T02:22:05.600Z,8.04672
2018-03-29T02:22:17.802Z,11.265408
2018-03-29T02:22:29.952Z,11.265408
2018-03-29T02:22:42.163Z,11.265408